Chance, Virginia
Current Conditions -  °F | °C
As of 3:35 PM on Thursday 27 Nov 2014 (Local Time) from KXSA Reporting Station
Broken Clouds Broken Clouds  
Wind Chill: 42°   Ceiling: 4600
Heat Index: 42°   Visibility: 10mi
Dew Point: 35°   Wind: 0mph
Humidity: 76%   Direction: NA
Pressure: 30.07"   Gusts: NA
Location:  38.03°N, 76.9626°W
Report Text: KXSA 272035Z AUTO 00000KT 10SM BKN046 05/02 A3007 RMK AO2 T00540015
Loading
Personal Weather Stations






























Interactive Weather Map New forecast layout! Learn more

10-Day Weather Forecast

Advertisements
Track Severe Weather on mobile